Time;durP1;ratioP1;P1;durP2;ratioP2;P2;SDS_P1;SDS_P2;PMS_P1;PMS_P2;Temp;Humidity;BMP_temperature;BMP_pressure;BME280_temperature;BME280_humidity;BME280_pressure;Samples;Min_cycle;Max_cycle;Signal;HPM_P1;HPM_P2
2022/01/09 00:00:16;;;;;;;1.35;1.20;;;14.10;56.10;;;;;;5050595;28;20521;-71
2022/01/09 00:02:43;;;;;;;1.17;0.90;;;;;;;;;;5050393;28;20088;-71
2022/01/09 00:05:11;;;;;;;1.92;1.10;;;14.00;64.40;;;;;;5051541;28;20409;-71
2022/01/09 00:07:38;;;;;;;1.88;1.10;;;13.80;64.50;;;;;;5050035;28;20132;-71
2022/01/09 00:10:06;;;;;;;1.08;0.95;;;14.10;56.10;;;;;;5050204;28;20053;-71
2022/01/09 00:12:33;;;;;;;1.02;0.93;;;14.10;64.70;;;;;;5050019;28;20084;-71
2022/01/09 00:14:59;;;;;;;0.93;0.90;;;14.00;62.50;;;;;;5050300;28;20132;-71
2022/01/09 00:17:26;;;;;;;1.60;1.20;;;14.00;64.70;;;;;;5050155;28;20144;-71
2022/01/09 00:19:53;;;;;;;1.48;1.10;;;;;;;;;;5051777;28;20124;-71
2022/01/09 00:22:31;;;;;;;1.50;1.00;;;14.00;64.70;;;;;;5052143;28;20136;-71
2022/01/09 00:24:58;;;;;;;1.60;1.08;;;;;;;;;;5053584;28;20041;-72
2022/01/09 00:27:24;;;;;;;1.20;0.90;;;13.90;64.50;;;;;;5053885;28;20144;-71
2022/01/09 00:29:51;;;;;;;1.23;1.08;;;14.10;64.60;;;;;;5053744;28;20144;-73
2022/01/09 00:32:18;;;;;;;1.83;1.02;;;14.00;64.70;;;;;;5055183;28;20055;-73
2022/01/09 00:34:45;;;;;;;1.50;1.10;;;14.10;64.90;;;;;;5053930;28;20128;-73
2022/01/09 00:37:12;;;;;;;1.00;0.90;;;;;;;;;;5053533;28;20059;-72
2022/01/09 00:39:40;;;;;;;1.98;1.10;;;13.90;64.50;;;;;;5053792;28;20503;-73
2022/01/09 00:42:07;;;;;;;1.10;0.93;;;14.20;64.90;;;;;;5053607;28;20056;-73
2022/01/09 00:44:34;;;;;;;0.85;0.82;;;;;;;;;;5053238;28;20458;-72
2022/01/09 00:47:01;;;;;;;1.33;1.00;;;13.90;64.50;;;;;;5052103;28;20136;-73
2022/01/09 00:49:28;;;;;;;1.10;1.00;;;14.00;64.60;;;;;;5053545;28;20060;-73
2022/01/09 00:51:55;;;;;;;1.20;1.00;;;13.80;62.80;;;;;;5053126;28;20136;-73
2022/01/09 00:54:22;;;;;;;1.17;1.00;;;13.80;64.70;;;;;;5054568;28;20136;-73
2022/01/09 00:56:50;;;;;;;1.13;1.02;;;13.80;57.90;;;;;;5053351;28;20144;-73
2022/01/09 00:59:16;;;;;;;1.10;0.98;;;13.90;57.00;;;;;;5054372;28;20053;-73
2022/01/09 01:01:43;;;;;;;1.60;1.08;;;13.90;64.60;;;;;;5053128;28;20660;-71
2022/01/09 01:04:10;;;;;;;1.00;0.90;;;13.90;64.90;;;;;;5053188;28;20049;-73
2022/01/09 01:06:37;;;;;;;1.17;1.02;;;;;;;;;;5052550;28;20472;-73
2022/01/09 01:09:03;;;;;;;1.15;1.00;;;13.60;64.50;;;;;;5053314;28;20410;-73
2022/01/09 01:11:30;;;;;;;1.33;1.00;;;14.20;65.00;;;;;;5053162;28;20128;-73
2022/01/09 01:13:58;;;;;;;0.93;0.82;;;13.90;62.80;;;;;;5052909;28;20149;-73
2022/01/09 01:16:25;;;;;;;1.20;1.05;;;13.70;60.60;;;;;;5053918;28;20147;-73
2022/01/09 01:18:54;;;;;;;1.23;1.00;;;13.90;64.60;;;;;;5052677;28;20135;-73
2022/01/09 01:21:23;;;;;;;1.60;0.98;;;;;;;;;;5053007;28;20087;-73
2022/01/09 01:23:50;;;;;;;1.20;0.90;;;13.90;64.50;;;;;;5053177;28;20053;-73
2022/01/09 01:26:16;;;;;;;1.10;1.00;;;13.90;64.80;;;;;;5052703;28;20505;-73
2022/01/09 01:28:43;;;;;;;1.10;0.90;;;;;;;;;;5052920;28;20131;-72
2022/01/09 01:31:12;;;;;;;0.90;0.90;;;13.80;64.70;;;;;;5052627;28;20148;-74
2022/01/09 01:33:39;;;;;;;1.58;1.05;;;13.60;64.60;;;;;;5052821;28;20136;-73
2022/01/09 01:36:05;;;;;;;0.73;0.73;;;13.80;60.50;;;;;;5053478;28;20124;-73
2022/01/09 01:38:32;;;;;;;0.80;0.80;;;13.80;64.60;;;;;;5052772;28;20139;-73
2022/01/09 01:41:00;;;;;;;0.95;0.80;;;;;;;;;;5052269;28;20067;-72
2022/01/09 01:43:26;;;;;;;1.08;0.90;;;13.80;64.60;;;;;;5052356;28;20135;-73
2022/01/09 01:45:53;;;;;;;1.00;0.90;;;14.00;64.50;;;;;;5052166;28;20131;-73
2022/01/09 01:48:21;;;;;;;0.73;0.73;;;14.00;60.80;;;;;;5052011;28;20132;-73
2022/01/09 01:50:48;;;;;;;1.00;0.90;;;14.00;60.90;;;;;;5053250;28;20129;-73
2022/01/09 01:53:18;;;;;;;0.93;0.80;;;14.00;64.40;;;;;;5052534;28;20139;-73
2022/01/09 01:55:48;;;;;;;1.20;1.00;;;13.50;64.10;;;;;;5052149;28;20053;-73
2022/01/09 01:58:15;;;;;;;0.93;0.80;;;14.10;64.60;;;;;;5052161;28;20056;-73
2022/01/09 02:00:42;;;;;;;0.73;0.73;;;14.10;64.60;;;;;;5052381;28;20079;-73
2022/01/09 02:03:09;;;;;;;0.80;0.80;;;14.10;64.50;;;;;;5051677;28;20143;-73
2022/01/09 02:05:37;;;;;;;0.70;0.70;;;14.00;55.80;;;;;;5051475;28;20501;-71
2022/01/09 02:08:04;;;;;;;0.80;0.80;;;;;;;;;;5052229;28;20136;-72
2022/01/09 02:10:31;;;;;;;0.77;0.77;;;14.10;64.50;;;;;;5052098;28;20116;-73
2022/01/09 02:12:58;;;;;;;1.30;0.95;;;;;;;;;;5053002;28;20127;-73
2022/01/09 02:15:31;;;;;;;0.80;0.77;;;14.20;64.40;;;;;;5051348;28;20064;-73
2022/01/09 02:17:58;;;;;;;0.70;0.70;;;14.00;64.20;;;;;;5051804;28;20524;-73
2022/01/09 02:20:26;;;;;;;0.82;0.80;;;13.70;56.80;;;;;;5051668;28;20057;-73
2022/01/09 02:22:53;;;;;;;0.98;0.88;;;14.10;56.70;;;;;;5051799;28;20055;-72
2022/01/09 02:25:19;;;;;;;0.73;0.73;;;14.20;64.10;;;;;;5051597;28;20076;-73
2022/01/09 02:27:47;;;;;;;0.90;0.80;;;;;;;;;;5051624;28;20079;-72
2022/01/09 02:30:13;;;;;;;1.20;0.80;;;14.10;64.30;;;;;;5051460;28;20132;-73
2022/01/09 02:32:40;;;;;;;0.80;0.80;;;14.00;63.90;;;;;;5051533;28;20486;-73
2022/01/09 02:35:08;;;;;;;0.60;0.60;;;14.20;61.40;;;;;;5051418;28;20140;-73
2022/01/09 02:37:36;;;;;;;0.80;0.80;;;14.20;64.30;;;;;;5050859;28;20465;-73
2022/01/09 02:40:03;;;;;;;0.80;0.80;;;14.20;64.00;;;;;;5052698;28;20048;-73
2022/01/09 02:42:31;;;;;;;0.82;0.80;;;;;;;;;;5051344;28;20554;-73
2022/01/09 02:44:58;;;;;;;0.70;0.70;;;14.30;64.00;;;;;;5052237;28;20091;-73
2022/01/09 02:47:28;;;;;;;0.70;0.70;;;;;;;;;;5050793;28;20084;-71
2022/01/09 02:49:57;;;;;;;0.90;0.90;;;;;;;;;;5052878;28;20045;-71
2022/01/09 02:52:31;;;;;;;0.80;0.80;;;14.20;58.80;;;;;;5051001;28;20136;-73
2022/01/09 02:55:11;;;;;;;0.70;0.70;;;14.20;61.00;;;;;;5051381;28;20107;-73
2022/01/09 02:57:38;;;;;;;0.88;0.70;;;14.20;58.00;;;;;;5050647;28;20053;-72
2022/01/09 03:00:06;;;;;;;0.80;0.80;;;14.20;63.90;;;;;;5051409;28;20059;-73
2022/01/09 03:02:33;;;;;;;0.80;0.80;;;14.60;64.00;;;;;;5051095;28;20059;-73
2022/01/09 03:05:00;;;;;;;1.10;0.75;;;14.20;57.80;;;;;;5050901;28;20079;-72
2022/01/09 03:07:26;;;;;;;0.73;0.70;;;14.30;63.80;;;;;;5050871;28;20135;-73
2022/01/09 03:09:53;;;;;;;0.80;0.80;;;14.10;64.00;;;;;;5050546;28;20133;-73
2022/01/09 03:12:22;;;;;;;0.70;0.70;;;14.00;55.40;;;;;;5050897;28;20533;-73
2022/01/09 03:14:49;;;;;;;0.75;0.70;;;14.40;63.90;;;;;;5051085;28;20111;-73
2022/01/09 03:17:16;;;;;;;0.65;0.65;;;;;;;;;;5050503;28;20084;-71
2022/01/09 03:19:43;;;;;;;0.70;0.70;;;14.30;63.90;;;;;;5050992;28;20055;-73
2022/01/09 03:22:09;;;;;;;0.60;0.60;;;14.30;63.90;;;;;;5051877;28;20057;-73
2022/01/09 03:24:36;;;;;;;0.73;0.73;;;14.40;57.00;;;;;;5050828;28;20132;-72
2022/01/09 03:27:03;;;;;;;0.70;0.70;;;14.40;64.00;;;;;;5051391;28;20132;-70
2022/01/09 03:29:31;;;;;;;0.50;0.50;;;14.30;55.40;;;;;;5051623;28;20131;-70
2022/01/09 03:31:58;;;;;;;0.63;0.63;;;;;;;;;;5050520;28;20063;-70
2022/01/09 03:34:25;;;;;;;0.60;0.60;;;14.40;63.70;;;;;;5050347;28;20049;-70
2022/01/09 03:36:53;;;;;;;0.80;0.80;;;;;;;;;;5050459;28;20053;-71
2022/01/09 03:39:19;;;;;;;1.15;0.85;;;14.40;63.90;;;;;;5051596;28;20048;-70
2022/01/09 03:41:46;;;;;;;0.70;0.70;;;14.40;63.90;;;;;;5050509;28;20136;-70
2022/01/09 03:44:13;;;;;;;0.85;0.73;;;14.40;59.10;;;;;;5050441;28;20049;-70
2022/01/09 03:46:41;;;;;;;0.60;0.60;;;14.50;63.60;;;;;;5051677;28;20134;-71
2022/01/09 03:49:07;;;;;;;0.60;0.60;;;13.90;63.40;;;;;;5050881;28;20465;-71
2022/01/09 03:51:37;;;;;;;1.58;0.90;;;14.40;63.90;;;;;;5050408;28;20136;-70
2022/01/09 03:54:04;;;;;;;0.90;0.80;;;14.50;63.90;;;;;;5051674;28;20080;-70
2022/01/09 03:56:31;;;;;;;0.95;0.80;;;;;;;;;;5052536;28;20081;-71
2022/01/09 03:58:58;;;;;;;0.77;0.77;;;14.20;63.40;;;;;;5055615;28;20076;-70
2022/01/09 04:01:24;;;;;;;0.85;0.73;;;14.30;63.70;;;;;;5055202;28;20497;-70
2022/01/09 04:03:52;;;;;;;0.82;0.80;;;14.10;58.10;;;;;;5054472;28;20132;-71
2022/01/09 04:06:23;;;;;;;0.82;0.60;;;;;;;;;;5053506;28;20080;-71
2022/01/09 04:08:51;;;;;;;0.90;0.77;;;14.00;63.60;;;;;;5054439;28;20056;-70
2022/01/09 04:11:22;;;;;;;0.80;0.80;;;14.40;63.80;;;;;;5054283;28;20490;-70
2022/01/09 04:13:49;;;;;;;0.73;0.73;;;14.00;63.30;;;;;;5053940;28;20057;-70
2022/01/09 04:16:16;;;;;;;0.80;0.80;;;14.40;63.50;;;;;;5054139;28;20461;-70
2022/01/09 04:18:42;;;;;;;0.80;0.80;;;14.00;63.40;;;;;;5054070;28;20144;-70
2022/01/09 04:21:11;;;;;;;1.25;0.80;;;14.40;55.30;;;;;;5054040;28;20469;-72
2022/01/09 04:23:38;;;;;;;0.98;0.80;;;14.40;57.70;;;;;;5053884;28;20143;-70
2022/01/09 04:26:04;;;;;;;0.70;0.70;;;14.20;63.40;;;;;;5054943;28;20044;-70
2022/01/09 04:28:31;;;;;;;1.08;0.80;;;14.40;63.80;;;;;;5053799;28;20052;-70
2022/01/09 04:30:58;;;;;;;0.70;0.70;;;14.50;60.00;;;;;;5053722;28;20141;-71
2022/01/09 04:33:25;;;;;;;1.00;0.90;;;14.40;63.50;;;;;;5054983;28;20135;-70
2022/01/09 04:35:51;;;;;;;1.20;0.80;;;14.00;63.40;;;;;;5053533;28;20132;-70
2022/01/09 04:38:19;;;;;;;1.17;0.80;;;14.40;57.10;;;;;;5053857;28;20482;-71
2022/01/09 04:40:46;;;;;;;1.15;0.82;;;14.40;57.30;;;;;;5053301;28;20476;-70
2022/01/09 04:43:14;;;;;;;0.70;0.70;;;14.50;63.80;;;;;;5053806;28;20057;-70
2022/01/09 04:45:41;;;;;;;1.10;0.88;;;14.30;63.40;;;;;;5053088;28;20049;-70
2022/01/09 04:48:10;;;;;;;1.92;0.80;;;;;;;;;;5053815;28;20053;-72
2022/01/09 04:50:39;;;;;;;1.10;0.73;;;14.00;63.50;;;;;;5053168;28;20091;-71
2022/01/09 04:53:07;;;;;;;0.80;0.75;;;14.40;63.70;;;;;;5053374;28;20052;-70
2022/01/09 04:55:36;;;;;;;1.05;0.80;;;14.40;63.40;;;;;;5052863;28;20049;-70
2022/01/09 04:58:03;;;;;;;1.25;0.82;;;14.60;63.50;;;;;;5053468;28;20140;-70
2022/01/09 05:00:30;;;;;;;1.27;0.80;;;14.10;63.30;;;;;;5053625;28;20482;-70
2022/01/09 05:02:57;;;;;;;1.33;1.00;;;;;;;;;;5053465;28;20136;-71
2022/01/09 05:05:24;;;;;;;1.42;0.90;;;14.40;59.60;;;;;;5052839;28;20128;-73
2022/01/09 05:07:51;;;;;;;1.27;0.85;;;;;;;;;;5052059;28;20152;-73
2022/01/09 05:10:18;;;;;;;1.42;0.80;;;14.50;63.50;;;;;;5052623;28;20131;-73
2022/01/09 05:12:46;;;;;;;1.60;0.90;;;14.50;59.90;;;;;;5052890;28;20132;-73
2022/01/09 05:15:15;;;;;;;1.10;0.70;;;14.50;59.60;;;;;;5053091;28;20446;-73
2022/01/09 05:17:42;;;;;;;1.25;0.90;;;14.30;63.40;;;;;;5052652;28;20052;-73
2022/01/09 05:20:10;;;;;;;1.38;0.90;;;14.40;55.70;;;;;;5052930;28;20057;-73
2022/01/09 05:22:36;;;;;;;1.92;1.00;;;14.40;63.60;;;;;;5053008;28;20136;-73
2022/01/09 05:25:06;;;;;;;1.27;0.70;;;14.50;59.40;;;;;;5052541;28;20155;-73
2022/01/09 05:27:33;;;;;;;2.03;1.10;;;14.50;63.60;;;;;;5052647;28;20048;-74
2022/01/09 05:30:01;;;;;;;1.23;0.73;;;14.60;57.40;;;;;;5053038;28;20469;-74
2022/01/09 05:32:28;;;;;;;1.98;0.80;;;14.10;63.20;;;;;;5052333;28;20081;-74
2022/01/09 05:34:54;;;;;;;1.45;0.90;;;14.50;63.40;;;;;;5053914;28;20573;-74
2022/01/09 05:37:21;;;;;;;0.85;0.75;;;;;;;;;;5052660;28;20080;-75
2022/01/09 05:39:49;;;;;;;2.28;1.00;;;;;;;;;;5052427;28;20496;-74
2022/01/09 05:42:16;;;;;;;2.83;1.10;;;;;;;;;;5052373;28;20129;-75
2022/01/09 05:44:43;;;;;;;1.77;0.98;;;14.50;63.60;;;;;;5052478;28;20059;-74
2022/01/09 05:47:11;;;;;;;2.20;1.00;;;14.50;55.30;;;;;;5034978;28;20141;-75
2022/01/09 05:49:38;;;;;;;1.67;1.00;;;14.40;62.20;;;;;;5032226;28;20133;-74
2022/01/09 05:52:06;;;;;;;2.10;1.10;;;14.40;63.40;;;;;;5044430;28;20198;-74
2022/01/09 05:54:33;;;;;;;2.63;0.95;;;14.60;63.40;;;;;;5052449;28;20135;-74
2022/01/09 05:56:59;;;;;;;3.25;0.90;;;14.40;63.40;;;;;;5051977;28;20128;-74
2022/01/09 05:59:26;;;;;;;2.25;1.10;;;14.60;58.00;;;;;;5052393;28;20092;-74
2022/01/09 06:01:55;;;;;;;2.35;1.20;;;;;;;;;;5052103;28;20096;-74
2022/01/09 06:04:23;;;;;;;2.53;1.10;;;14.50;55.20;;;;;;5052147;28;20564;-74
2022/01/09 06:06:50;;;;;;;3.85;1.10;;;;;;;;;;5051147;28;20578;-74
2022/01/09 06:09:17;;;;;;;3.53;1.27;;;14.50;63.40;;;;;;5052040;28;20135;-74
2022/01/09 06:11:44;;;;;;;4.43;1.40;;;;;;;;;;5052926;28;20188;-74
2022/01/09 06:14:11;;;;;;;3.55;1.23;;;14.60;63.70;;;;;;5051861;28;20156;-74
2022/01/09 06:16:38;;;;;;;2.05;1.10;;;14.50;63.60;;;;;;5052477;28;20136;-74
2022/01/09 06:19:05;;;;;;;3.25;1.20;;;;;;;;;;5052353;28;20128;-74
2022/01/09 06:21:33;;;;;;;4.60;1.50;;;14.50;63.30;;;;;;5051720;28;20091;-74
2022/01/09 06:24:00;;;;;;;5.35;1.40;;;14.10;63.40;;;;;;5052097;28;20545;-74
2022/01/09 06:26:27;;;;;;;2.90;1.10;;;;;;;;;;5052589;28;20448;-74
2022/01/09 06:28:54;;;;;;;3.45;1.50;;;14.10;63.40;;;;;;5051413;28;20127;-74
2022/01/09 06:31:21;;;;;;;3.33;1.45;;;;;;;;;;5052926;28;20477;-74
2022/01/09 06:33:48;;;;;;;2.63;1.10;;;;;;;;;;5051457;28;20057;-74
2022/01/09 06:36:15;;;;;;;3.15;1.10;;;;;;;;;;5052037;28;20466;-74
2022/01/09 06:38:43;;;;;;;3.28;1.30;;;14.50;63.30;;;;;;5051409;28;20458;-74
2022/01/09 06:41:10;;;;;;;4.40;1.40;;;14.70;63.40;;;;;;5052396;28;20562;-74
2022/01/09 06:43:37;;;;;;;3.95;1.20;;;;;;;;;;5052358;28;20077;-74
2022/01/09 06:46:04;;;;;;;3.30;1.50;;;14.60;63.30;;;;;;5052046;28;20568;-74
2022/01/09 06:48:31;;;;;;;3.35;1.40;;;14.60;63.30;;;;;;5051373;28;20095;-74
2022/01/09 06:50:57;;;;;;;4.25;1.52;;;14.80;56.10;;;;;;5050599;28;20080;-74
2022/01/09 06:53:24;;;;;;;3.17;1.20;;;14.60;57.00;;;;;;5050634;28;20095;-74
2022/01/09 06:55:52;;;;;;;2.65;1.30;;;14.60;58.40;;;;;;5050867;28;20474;-74
2022/01/09 06:58:21;;;;;;;5.50;1.50;;;14.60;63.20;;;;;;5051065;28;20051;-74
2022/01/09 07:00:48;;;;;;;3.85;1.30;;;14.60;57.00;;;;;;5050949;28;20061;-74
2022/01/09 07:03:14;;;;;;;5.13;1.58;;;14.50;63.50;;;;;;5051937;28;20537;-74
2022/01/09 07:05:41;;;;;;;4.07;1.40;;;14.10;63.00;;;;;;5051696;28;20049;-74
2022/01/09 07:08:08;;;;;;;4.88;1.50;;;14.80;57.90;;;;;;5050468;28;20144;-74
2022/01/09 07:10:36;;;;;;;4.47;1.50;;;14.60;63.40;;;;;;5052182;28;20052;-74
2022/01/09 07:13:04;;;;;;;3.60;1.50;;;14.20;63.00;;;;;;5050858;28;20056;-74
2022/01/09 07:15:31;;;;;;;3.75;1.60;;;14.30;63.00;;;;;;5050526;28;20079;-74
2022/01/09 07:17:58;;;;;;;2.58;1.23;;;14.70;63.50;;;;;;5050944;28;20472;-74
2022/01/09 07:20:25;;;;;;;3.08;1.20;;;14.70;62.50;;;;;;5051795;28;20053;-74
2022/01/09 07:22:52;;;;;;;4.15;1.55;;;;;;;;;;5050721;28;20490;-74
2022/01/09 07:25:18;;;;;;;4.38;1.40;;;14.60;61.30;;;;;;5051592;28;20147;-74
2022/01/09 07:27:45;;;;;;;2.63;1.33;;;14.00;62.80;;;;;;5050019;28;20091;-74
2022/01/09 07:30:13;;;;;;;2.63;1.23;;;14.70;63.20;;;;;;5050358;28;20087;-74
2022/01/09 07:32:40;;;;;;;2.90;1.20;;;;;;;;;;5051231;28;20080;-74
2022/01/09 07:35:08;;;;;;;2.60;1.25;;;14.80;63.20;;;;;;5050809;28;20052;-74
2022/01/09 07:37:35;;;;;;;3.33;1.35;;;14.70;62.50;;;;;;5050453;28;20132;-74
2022/01/09 07:40:02;;;;;;;3.75;1.30;;;14.80;63.50;;;;;;5051464;28;20047;-74
2022/01/09 07:42:29;;;;;;;3.45;1.23;;;14.40;61.80;;;;;;5051306;28;20045;-74
2022/01/09 07:44:56;;;;;;;3.30;1.27;;;14.70;63.40;;;;;;5051508;28;20493;-74
2022/01/09 07:47:24;;;;;;;3.75;1.27;;;14.70;55.00;;;;;;5050183;28;20128;-74
2022/01/09 07:49:51;;;;;;;3.67;1.38;;;;;;;;;;5050167;28;20084;-74
2022/01/09 07:52:18;;;;;;;2.53;1.20;;;14.40;62.90;;;;;;5050496;28;20469;-74
2022/01/09 07:54:44;;;;;;;2.65;1.40;;;14.80;63.10;;;;;;5050697;28;20209;-74
2022/01/09 07:57:11;;;;;;;3.33;1.50;;;14.80;58.90;;;;;;5051434;28;20565;-74
2022/01/09 07:59:38;;;;;;;2.55;1.23;;;14.90;63.40;;;;;;5049949;28;20136;-74
2022/01/09 08:02:05;;;;;;;4.28;1.60;;;14.70;63.30;;;;;;5050222;28;20135;-74
2022/01/09 08:04:33;;;;;;;3.58;1.60;;;14.60;63.20;;;;;;5050142;28;20510;-74
2022/01/09 08:07:00;;;;;;;3.55;1.48;;;;;;;;;;5049980;28;20132;-74
2022/01/09 08:09:27;;;;;;;3.50;1.40;;;;;;;;;;5050278;28;20144;-74
2022/01/09 08:11:55;;;;;;;5.45;1.55;;;14.80;63.30;;;;;;5049984;28;20084;-74
2022/01/09 08:14:22;;;;;;;2.88;1.50;;;14.70;63.10;;;;;;5050164;28;20632;-74
2022/01/09 08:16:49;;;;;;;2.53;1.10;;;14.80;63.20;;;;;;5050222;28;20077;-74
2022/01/09 08:19:16;;;;;;;2.80;1.40;;;;;;;;;;5049300;28;20052;-75
2022/01/09 08:21:44;;;;;;;3.72;1.60;;;14.50;62.90;;;;;;5049500;28;20128;-74
2022/01/09 08:24:11;;;;;;;3.13;1.25;;;14.70;57.30;;;;;;5063803;28;20136;-74
2022/01/09 08:26:37;;;;;;;4.55;1.67;;;14.80;63.50;;;;;;5049515;28;20060;-75
2022/01/09 08:29:04;;;;;;;3.10;1.48;;;14.10;60.90;;;;;;5050107;28;20573;-75
2022/01/09 08:31:31;;;;;;;4.35;1.58;;;14.80;63.50;;;;;;5049717;28;20124;-75
2022/01/09 08:33:57;;;;;;;4.07;1.25;;;15.00;63.60;;;;;;5049568;28;20129;-75
2022/01/09 08:36:24;;;;;;;4.90;1.60;;;14.90;60.90;;;;;;5049515;28;20541;-75
2022/01/09 08:38:52;;;;;;;4.53;1.40;;;14.80;63.40;;;;;;5049128;28;20041;-75
2022/01/09 08:41:20;;;;;;;4.93;1.48;;;;;;;;;;5038920;28;20132;-75
2022/01/09 08:43:47;;;;;;;5.45;1.25;;;;;;;;;;5032732;28;20137;-75
2022/01/09 08:46:15;;;;;;;3.75;1.50;;;14.90;63.20;;;;;;5051126;28;20045;-75
2022/01/09 08:48:42;;;;;;;3.20;1.30;;;14.90;63.10;;;;;;5053594;28;20402;-75
2022/01/09 08:51:08;;;;;;;2.97;1.20;;;14.30;55.80;;;;;;5053095;28;20145;-75
2022/01/09 08:53:36;;;;;;;3.35;1.30;;;15.00;63.10;;;;;;5053460;28;20140;-75
2022/01/09 08:56:04;;;;;;;3.03;1.48;;;14.60;59.10;;;;;;5053192;28;20053;-75
2022/01/09 08:58:31;;;;;;;3.20;1.50;;;15.10;60.50;;;;;;5034470;28;20498;-75
2022/01/09 09:00:58;;;;;;;5.07;1.52;;;;;;;;;;5033478;28;20085;-75
2022/01/09 09:03:25;;;;;;;4.15;1.40;;;15.10;55.70;;;;;;5033269;28;20132;-75
2022/01/09 09:05:52;;;;;;;3.83;1.40;;;14.80;63.10;;;;;;5032735;28;20045;-75
2022/01/09 09:08:19;;;;;;;4.35;1.60;;;;;;;;;;5033224;28;20057;-75
2022/01/09 09:10:46;;;;;;;3.63;1.40;;;15.10;55.10;;;;;;5041621;28;20148;-75
2022/01/09 09:13:14;;;;;;;3.15;1.20;;;15.00;56.50;;;;;;5049564;28;20061;-75
2022/01/09 09:15:41;;;;;;;3.30;1.40;;;;;;;;;;5052271;28;20081;-74
2022/01/09 09:18:09;;;;;;;4.35;1.45;;;;;;;;;;5052922;28;20060;-72
2022/01/09 09:20:36;;;;;;;2.20;1.25;;;14.50;57.10;;;;;;5052458;28;20131;-73
2022/01/09 09:23:03;;;;;;;3.78;1.50;;;14.80;63.00;;;;;;5053787;28;20556;-73
2022/01/09 09:25:29;;;;;;;4.78;1.52;;;15.10;58.90;;;;;;5035672;28;20049;-72
2022/01/09 09:27:56;;;;;;;3.33;1.23;;;15.20;63.00;;;;;;5034052;28;20045;-72
2022/01/09 09:30:24;;;;;;;2.13;1.20;;;15.10;62.90;;;;;;5049852;28;20124;-72
2022/01/09 09:32:51;;;;;;;4.07;1.48;;;15.20;63.30;;;;;;5052066;28;20123;-71
2022/01/09 09:35:18;;;;;;;3.75;1.38;;;15.10;58.50;;;;;;5053416;28;20123;-72
2022/01/09 09:37:44;;;;;;;4.05;1.60;;;15.00;62.80;;;;;;5051775;28;20141;-74
2022/01/09 09:40:12;;;;;;;2.92;1.33;;;15.20;62.90;;;;;;5051225;28;20131;-74
2022/01/09 09:42:42;;;;;;;3.45;1.40;;;15.10;62.80;;;;;;5050934;28;20077;-73
2022/01/09 09:45:10;;;;;;;3.03;1.30;;;15.10;63.10;;;;;;5065893;28;20161;-74
2022/01/09 09:47:38;;;;;;;2.47;1.23;;;14.90;62.70;;;;;;5052771;28;20044;-74
2022/01/09 09:50:06;;;;;;;3.55;1.30;;;15.20;62.90;;;;;;5048897;28;20175;-73
2022/01/09 09:52:32;;;;;;;4.18;1.38;;;15.90;63.20;;;;;;5052303;28;20076;-74
2022/01/09 09:55:00;;;;;;;2.92;1.30;;;14.60;62.60;;;;;;5050889;28;20132;-74
2022/01/09 09:57:27;;;;;;;2.40;1.30;;;15.20;58.70;;;;;;5050477;28;20053;-74
2022/01/09 09:59:59;;;;;;;2.20;1.20;;;15.30;63.10;;;;;;5051581;28;20044;-74
2022/01/09 10:02:26;;;;;;;4.57;1.40;;;;;;;;;;5051491;28;20091;-75
2022/01/09 10:04:59;;;;;;;3.42;1.30;;;15.30;63.00;;;;;;5051623;28;20132;-73
2022/01/09 10:07:26;;;;;;;2.92;1.20;;;;;;;;;;5051360;28;20124;-75
2022/01/09 10:09:54;;;;;;;3.45;1.58;;;15.10;62.70;;;;;;5051292;28;20122;-74
2022/01/09 10:12:24;;;;;;;2.72;1.33;;;15.20;54.70;;;;;;5050801;28;20060;-74
2022/01/09 10:14:53;;;;;;;3.50;1.30;;;15.20;54.70;;;;;;5051885;28;20124;-75
2022/01/09 10:17:20;;;;;;;9.13;2.13;;;15.20;60.70;;;;;;5049181;28;20051;-73
2022/01/09 10:19:48;;;;;;;8.68;1.88;;;15.30;55.40;;;;;;5052286;28;20125;-74
2022/01/09 10:22:24;;;;;;;9.43;1.92;;;15.80;63.40;;;;;;5051293;28;20057;-73
2022/01/09 10:24:51;;;;;;;11.40;2.45;;;;;;;;;;5052474;28;20045;-73
2022/01/09 10:27:27;;;;;;;6.30;1.88;;;15.30;64.50;;;;;;5048329;28;20073;-73
2022/01/09 10:29:54;;;;;;;7.20;1.90;;;15.50;63.30;;;;;;5050450;28;20051;-73
2022/01/09 10:32:21;;;;;;;7.43;1.63;;;;;;;;;;5051293;28;20055;-73
2022/01/09 10:35:07;;;;;;;6.72;1.80;;;15.40;64.90;;;;;;5051347;28;20485;-73
2022/01/09 10:37:35;;;;;;;6.40;1.95;;;15.60;63.40;;;;;;5050124;28;20124;-72
2022/01/09 10:40:02;;;;;;;6.40;1.50;;;14.40;64.50;;;;;;5048701;28;20045;-73
2022/01/09 10:42:29;;;;;;;10.52;1.70;;;;;;;;;;5050581;28;20136;-73
2022/01/09 10:44:58;;;;;;;6.85;1.83;;;;;;;;;;5050267;28;20053;-72
2022/01/09 10:47:35;;;;;;;5.20;1.60;;;15.50;64.90;;;;;;5050043;28;20045;-73
2022/01/09 10:50:02;;;;;;;6.57;2.20;;;15.50;65.20;;;;;;5047712;28;20048;-72
2022/01/09 10:52:31;;;;;;;8.00;2.00;;;15.40;64.90;;;;;;5050524;28;20460;-72
2022/01/09 10:55:04;;;;;;;4.82;1.60;;;15.40;60.80;;;;;;5050636;28;20505;-73
2022/01/09 10:57:32;;;;;;;7.13;1.77;;;15.90;65.30;;;;;;5033396;28;20128;-73
2022/01/09 11:00:05;;;;;;;5.68;1.50;;;15.50;65.00;;;;;;5050735;28;20422;-73
2022/01/09 11:02:32;;;;;;;6.55;1.75;;;15.50;59.20;;;;;;5048056;28;20131;-73
2022/01/09 11:04:59;;;;;;;3.80;1.80;;;15.90;64.80;;;;;;5050625;28;20132;-72
2022/01/09 11:07:26;;;;;;;4.70;1.70;;;15.30;64.70;;;;;;5048908;28;20045;-72
2022/01/09 11:09:53;;;;;;;4.15;1.55;;;16.00;62.90;;;;;;5050527;28;20409;-73
2022/01/09 11:12:22;;;;;;;5.20;1.83;;;15.40;56.60;;;;;;5050590;28;20095;-75
2022/01/09 11:14:51;;;;;;;5.70;1.60;;;;;;;;;;5049147;28;20084;-74
2022/01/09 11:17:18;;;;;;;3.85;1.50;;;;;;;;;;5050339;28;20752;-75
2022/01/09 11:19:45;;;;;;;7.10;1.80;;;15.40;64.70;;;;;;5049140;28;20132;-75
2022/01/09 11:22:12;;;;;;;4.55;1.58;;;16.20;65.10;;;;;;5049414;28;20132;-74
2022/01/09 11:25:13;;;;;;;3.90;1.33;;;15.40;60.90;;;;;;5050159;28;20139;-74
2022/01/09 11:27:59;;;;;;;3.90;1.45;;;15.50;56.50;;;;;;5049630;28;20103;-74
2022/01/09 11:30:34;;;;;;;4.70;1.60;;;14.70;64.10;;;;;;5046489;28;20104;-74
2022/01/09 11:33:07;;;;;;;2.78;1.33;;;15.50;56.30;;;;;;5051310;28;20546;-74
2022/01/09 11:35:39;;;;;;;2.90;1.40;;;15.50;64.20;;;;;;5050240;28;20131;-74
2022/01/09 11:38:13;;;;;;;6.15;1.42;;;15.50;64.10;;;;;;5047342;28;20055;-74
2022/01/09 11:40:40;;;;;;;3.40;1.30;;;14.60;63.70;;;;;;5047409;28;20550;-74
2022/01/09 11:43:09;;;;;;;4.78;1.40;;;15.50;56.20;;;;;;5030789;28;20060;-74
2022/01/09 11:45:41;;;;;;;4.30;1.30;;;15.60;64.10;;;;;;5030498;28;20478;-74
2022/01/09 11:48:07;;;;;;;3.53;1.38;;;16.00;62.60;;;;;;5030716;28;20144;-74
2022/01/09 11:50:36;;;;;;;3.50;1.35;;;15.70;64.40;;;;;;5030772;28;20061;-74
2022/01/09 11:53:03;;;;;;;4.45;1.70;;;;;;;;;;5030603;28;20050;-74
2022/01/09 11:55:38;;;;;;;2.83;1.20;;;15.50;64.20;;;;;;5031452;28;20495;-74
2022/01/09 11:58:09;;;;;;;;;;;15.50;56.50;;;;;;5031326;28;20107;-74
2022/01/09 12:00:37;;;;;;;4.25;1.30;;;15.50;56.10;;;;;;5047428;28;20004;-74
2022/01/09 12:03:40;;;;;;;3.13;1.30;;;15.60;63.90;;;;;;5031114;28;20141;-73
2022/01/09 12:06:08;;;;;;;5.25;1.40;;;15.60;63.80;;;;;;5023764;28;20088;-75
2022/01/09 12:09:05;;;;;;;3.15;1.10;;;15.60;63.90;;;;;;5031029;28;20072;-76
2022/01/09 12:12:06;;;;;;;1.88;1.20;;;14.70;63.30;;;;;;5049589;28;20053;-74
2022/01/09 12:14:54;;;;;;;5.68;1.48;;;15.60;64.10;;;;;;5030587;28;20506;-75
2022/01/09 12:17:46;;;;;;;2.67;1.35;;;15.50;63.80;;;;;;5031005;28;20056;-75
2022/01/09 12:20:24;;;;;;;4.68;1.35;;;15.60;63.90;;;;;;5024506;28;20061;-75
2022/01/09 12:22:53;;;;;;;4.72;1.35;;;15.60;63.90;;;;;;5034250;28;20132;-75
2022/01/09 12:25:42;;;;;;;3.00;1.17;;;15.60;63.00;;;;;;5033969;28;20053;-75
2022/01/09 12:28:10;;;;;;;3.05;1.00;;;15.60;63.90;;;;;;5031021;28;20049;-75
2022/01/09 12:30:45;;;;;;;2.88;1.17;;;15.70;64.10;;;;;;5035177;28;20139;-75
2022/01/09 12:33:15;;;;;;;3.50;1.30;;;15.60;63.80;;;;;;5033989;28;20055;-75
2022/01/09 12:35:43;;;;;;;3.33;1.13;;;15.60;64.10;;;;;;5033948;28;20490;-75
2022/01/09 12:38:14;;;;;;;2.25;1.15;;;15.90;64.00;;;;;;5033952;28;20080;-75
2022/01/09 12:40:41;;;;;;;3.22;1.27;;;16.40;64.10;;;;;;5034116;28;20160;-75
2022/01/09 12:43:08;;;;;;;2.80;1.10;;;;;;;;;;5033848;28;20061;-75
2022/01/09 12:45:35;;;;;;;4.10;1.30;;;;;;;;;;5033415;28;20045;-76
2022/01/09 12:48:03;;;;;;;3.25;1.27;;;14.80;63.60;;;;;;5038651;28;20128;-75
2022/01/09 12:50:32;;;;;;;4.13;1.20;;;15.40;56.00;;;;;;5053349;28;20059;-75
2022/01/09 12:53:12;;;;;;;4.07;1.60;;;15.40;62.60;;;;;;5052904;28;20126;-75
2022/01/09 12:55:53;;;;;;;2.88;1.08;;;14.90;56.40;;;;;;5050715;28;20084;-75
2022/01/09 12:58:22;;;;;;;1.50;1.05;;;15.30;63.80;;;;;;5053982;28;20064;-74
2022/01/09 13:00:49;;;;;;;2.95;1.30;;;15.00;63.30;;;;;;5053358;28;20059;-75
2022/01/09 13:03:18;;;;;;;2.47;1.15;;;14.70;63.50;;;;;;5052092;28;20128;-75
2022/01/09 13:05:53;;;;;;;2.50;1.05;;;15.30;56.10;;;;;;5052426;28;20459;-74
2022/01/09 13:08:19;;;;;;;3.00;1.20;;;16.20;61.00;;;;;;5050527;28;20406;-73
2022/01/09 13:10:46;;;;;;;3.67;1.33;;;14.70;63.80;;;;;;5053251;28;20135;-72